Time;durP1;ratioP1;P1;durP2;ratioP2;P2;SDS_P1;SDS_P2;PMS_P1;PMS_P2;Temp;Humidity;BMP_temperature;BMP_pressure;BME280_temperature;BME280_humidity;BME280_pressure;Samples;Min_cycle;Max_cycle;Signal;HPM_P1;HPM_P2
2022/05/10 00:00:03;;;;;;;5.07;4.23;;;;;;;;;;515215;28;1205;-84
2022/05/10 00:00:21;;;;;;;5.38;4.47;;;;;;;;;;515136;28;1639;-84
2022/05/10 00:00:36;;;;;;;6.60;4.40;;;;;;;;;;519917;28;956;-84
2022/05/10 00:00:55;;;;;;;6.20;4.15;;;;;;;;;;517195;28;1479;-85
2022/05/10 00:01:23;;;;;;;4.70;4.20;;;;;;;;;;517288;28;1217;-84
2022/05/10 00:01:39;;;;;;;5.47;4.30;;;;;;;;;;516570;28;1793;-85
2022/05/10 00:01:55;;;;;;;5.32;4.13;;;;;;;;;;516715;28;1420;-85
2022/05/10 00:02:13;;;;;;;5.13;4.10;;;;;;;;;;516344;28;1523;-85
2022/05/10 00:02:32;;;;;;;5.05;4.38;;;;;;;;;;516749;28;1439;-85
2022/05/10 00:02:50;;;;;;;4.72;4.32;;;;;;;;;;516163;28;1815;-85
2022/05/10 00:03:07;;;;;;;4.63;4.13;;;;;;;;;;517538;28;1635;-85
2022/05/10 00:03:33;;;;;;;5.30;4.40;;;;;;;;;;517428;28;1300;-86
2022/05/10 00:03:49;;;;;;;5.22;4.50;;;;;;;;;;516904;28;1435;-85
2022/05/10 00:04:07;;;;;;;5.00;4.32;;;;;;;;;;516975;28;1480;-85
2022/05/10 00:04:22;;;;;;;5.68;4.30;;;;;;;;;;517021;28;1827;-85
2022/05/10 00:04:38;;;;;;;5.55;4.10;;;;;;;;;;516744;28;983;-85
2022/05/10 00:04:54;;;;;;;4.78;4.20;;;;;;;;;;516660;28;1483;-85
2022/05/10 00:05:10;;;;;;;5.00;4.30;;;;;;;;;;514763;28;1914;-85
2022/05/10 00:05:34;;;;;;;4.80;4.35;;;;;;;;;;515311;28;1409;-85
2022/05/10 00:05:49;;;;;;;5.47;4.57;;;;;;;;;;515074;28;1507;-85
2022/05/10 00:06:05;;;;;;;4.97;4.47;;;;;;;;;;515101;28;1594;-85
2022/05/10 00:06:21;;;;;;;5.13;4.40;;;;;;;;;;517368;28;1282;-85
2022/05/10 00:06:43;;;;;;;5.78;4.53;;;;;;;;;;516656;28;1396;-85
2022/05/10 00:06:59;;;;;;;5.05;4.35;;;;;;;;;;517276;28;1580;-85
2022/05/10 00:07:14;;;;;;;4.73;4.23;;;;;;;;;;516057;28;1121;-85
2022/05/10 00:07:33;;;;;;;5.18;4.25;;;;;;;;;;515337;28;1610;-85
2022/05/10 00:07:48;;;;;;;5.00;4.40;;;;;;;;;;514961;28;1383;-85
2022/05/10 00:08:08;;;;;;;5.17;4.67;;;;;;;;;;515297;28;1674;-85
2022/05/10 00:08:23;;;;;;;5.72;4.72;;;;;;;;;;515578;28;1050;-84
2022/05/10 00:08:39;;;;;;;5.60;4.68;;;;;;;;;;515036;28;1487;-84
2022/05/10 00:08:55;;;;;;;4.93;4.43;;;;;;;;;;515663;28;1212;-85
2022/05/10 00:09:12;;;;;;;5.10;4.60;;;;;;;;;;515934;28;964;-85
2022/05/10 00:09:29;;;;;;;5.10;4.47;;;;;;;;;;514981;28;1668;-85
2022/05/10 00:09:44;;;;;;;4.88;4.30;;;;;;;;;;516470;28;948;-85
2022/05/10 00:10:00;;;;;;;4.95;4.50;;;;;;;;;;515885;28;903;-85
2022/05/10 00:10:16;;;;;;;4.93;4.53;;;;;;;;;;513730;28;1658;-85
2022/05/10 00:10:31;;;;;;;4.63;4.20;;;;;;;;;;513777;28;1044;-85
2022/05/10 00:10:47;;;;;;;5.10;4.45;;;;;;;;;;514204;28;1540;-85
2022/05/10 00:11:02;;;;;;;6.55;4.68;;;;;;;;;;514186;28;1445;-84
2022/05/10 00:11:18;;;;;;;6.03;4.57;;;;;;;;;;515819;28;1427;-85
2022/05/10 00:11:33;;;;;;;5.47;4.40;;;;;;;;;;517737;28;1379;-85
2022/05/10 00:11:49;;;;;;;5.43;4.40;;;;;;;;;;514796;28;1470;-85
2022/05/10 00:12:05;;;;;;;4.93;4.43;;;;;;;;;;515560;28;1444;-84
2022/05/10 00:12:20;;;;;;;4.68;4.28;;;;;;;;;;516279;28;1157;-85
2022/05/10 00:12:37;;;;;;;4.80;4.40;;;;;;;;;;515927;28;1555;-85
2022/05/10 00:12:53;;;;;;;4.85;4.40;;;;;;;;;;517790;28;900;-85
2022/05/10 00:13:09;;;;;;;4.50;4.10;;;;;;;;;;517689;28;1836;-86
2022/05/10 00:13:25;;;;;;;4.70;4.30;;;;;;;;;;516782;28;1575;-85
2022/05/10 00:13:40;;;;;;;4.93;4.43;;;;;;;;;;515886;28;1435;-86
2022/05/10 00:13:56;;;;;;;5.07;4.40;;;;;;;;;;515103;28;1242;-84
2022/05/10 00:14:11;;;;;;;5.03;4.30;;;;;;;;;;513875;28;1245;-85
2022/05/10 00:14:28;;;;;;;4.93;4.37;;;;;;;;;;512822;28;1418;-85
2022/05/10 00:14:43;;;;;;;4.95;4.40;;;;;;;;;;514920;28;1531;-85
2022/05/10 00:14:59;;;;;;;4.75;4.20;;;;;;;;;;513995;28;1214;-84
2022/05/10 00:15:14;;;;;;;5.17;4.50;;;;;;;;;;514600;28;1528;-85
2022/05/10 00:15:30;;;;;;;5.30;4.57;;;;;;;;;;513358;28;1284;-85
2022/05/10 00:15:47;;;;;;;5.17;4.30;;;;;;;;;;509725;29;1268;-85
2022/05/10 00:16:14;;;;;;;5.13;4.38;;;;;;;;;;511560;29;873;-85
2022/05/10 00:16:33;;;;;;;5.60;4.30;;;;;;;;;;513575;28;1599;-85
2022/05/10 00:16:51;;;;;;;5.72;4.18;;;;;;;;;;511885;28;1326;-86
2022/05/10 00:17:08;;;;;;;7.25;4.55;;;;;;;;;;511193;28;1671;-85
2022/05/10 00:17:37;;;;;;;6.47;4.45;;;;;;;;;;513094;28;864;-85
2022/05/10 00:17:52;;;;;;;4.85;4.40;;;;;;;;;;514042;28;1110;-84
2022/05/10 00:18:14;;;;;;;4.97;4.50;;;;;;;;;;517071;28;1233;-85
2022/05/10 00:18:29;;;;;;;5.20;4.70;;;;;;;;;;514992;28;1425;-85
2022/05/10 00:18:45;;;;;;;5.10;4.60;;;;;;;;;;516981;28;901;-85
2022/05/10 00:19:01;;;;;;;4.90;4.40;;;;;;;;;;516380;28;868;-85
2022/05/10 00:19:18;;;;;;;5.00;4.50;;;;;;;;;;518209;28;880;-85
2022/05/10 00:19:34;;;;;;;5.20;4.70;;;;;;;;;;517691;28;1223;-85
2022/05/10 00:19:49;;;;;;;5.43;4.83;;;;;;;;;;519250;28;1268;-85
2022/05/10 00:20:09;;;;;;;6.25;4.78;;;;;;;;;;517184;28;1554;-85
2022/05/10 00:20:26;;;;;;;8.75;4.78;;;;;;;;;;517176;28;928;-85
2022/05/10 00:20:43;;;;;;;8.05;4.88;;;;;;;;;;516582;28;944;-85
2022/05/10 00:20:59;;;;;;;4.85;4.38;;;;;;;;;;516195;28;1472;-84
2022/05/10 00:21:22;;;;;;;4.73;4.30;;;;;;;;;;515171;28;1193;-85
2022/05/10 00:21:37;;;;;;;6.03;4.85;;;;;;;;;;515039;28;1424;-85
2022/05/10 00:21:53;;;;;;;6.40;4.80;;;;;;;;;;513514;28;1530;-85
2022/05/10 00:22:09;;;;;;;5.55;4.68;;;;;;;;;;514621;28;1400;-85
2022/05/10 00:22:24;;;;;;;5.40;4.80;;;;;;;;;;511844;28;1320;-84
2022/05/10 00:22:40;;;;;;;6.00;4.70;;;;;;;;;;512886;28;1416;-85
2022/05/10 00:22:55;;;;;;;5.53;4.60;;;;;;;;;;514119;28;988;-84
2022/05/10 00:23:11;;;;;;;5.10;4.50;;;;;;;;;;515127;28;1607;-84
2022/05/10 00:23:26;;;;;;;5.17;4.40;;;;;;;;;;516051;28;1619;-85
2022/05/10 00:23:41;;;;;;;4.82;4.32;;;;;;;;;;516414;28;1523;-85
2022/05/10 00:23:57;;;;;;;4.77;4.27;;;;;;;;;;515563;28;1423;-85
2022/05/10 00:24:13;;;;;;;4.95;4.45;;;;;;;;;;515197;28;1450;-84
2022/05/10 00:24:29;;;;;;;5.90;4.63;;;;;;;;;;514846;28;1198;-85
2022/05/10 00:24:44;;;;;;;7.03;4.60;;;;;;;;;;514203;28;892;-85
2022/05/10 00:25:00;;;;;;;6.32;4.65;;;;;;;;;;515757;28;1906;-84
2022/05/10 00:25:18;;;;;;;6.10;4.67;;;;;;;;;;516110;28;879;-85
2022/05/10 00:25:33;;;;;;;5.93;4.63;;;;;;;;;;516185;28;971;-84
2022/05/10 00:25:49;;;;;;;4.97;4.30;;;;;;;;;;516078;28;1625;-84
2022/05/10 00:26:04;;;;;;;4.80;4.40;;;;;;;;;;518254;28;1447;-84
2022/05/10 00:26:23;;;;;;;5.60;4.60;;;;;;;;;;517144;28;1188;-84
2022/05/10 00:26:38;;;;;;;5.47;4.50;;;;;;;;;;517162;28;1311;-84
2022/05/10 00:26:55;;;;;;;4.90;4.40;;;;;;;;;;517433;28;1507;-85
2022/05/10 00:27:10;;;;;;;5.25;4.43;;;;;;;;;;515858;28;1287;-84
2022/05/10 00:27:26;;;;;;;5.37;4.50;;;;;;;;;;517053;28;1174;-84
2022/05/10 00:27:41;;;;;;;5.40;4.70;;;;;;;;;;517992;28;1236;-84
2022/05/10 00:27:57;;;;;;;5.25;4.70;;;;;;;;;;517331;28;1617;-85
2022/05/10 00:28:12;;;;;;;5.10;4.60;;;;;;;;;;516614;28;927;-84
2022/05/10 00:28:28;;;;;;;4.72;4.30;;;;;;;;;;516532;28;1519;-85
2022/05/10 00:28:43;;;;;;;4.90;4.30;;;;;;;;;;519602;28;1888;-85
2022/05/10 00:29:01;;;;;;;5.53;4.40;;;;;;;;;;519676;28;1438;-85
2022/05/10 00:29:16;;;;;;;5.35;4.68;;;;;;;;;;518754;28;1102;-84
2022/05/10 00:29:32;;;;;;;5.03;4.53;;;;;;;;;;516111;28;833;-85
2022/05/10 00:29:47;;;;;;;5.30;4.50;;;;;;;;;;517159;28;1464;-84
2022/05/10 00:30:04;;;;;;;5.07;4.57;;;;;;;;;;519027;28;1359;-85
2022/05/10 00:30:20;;;;;;;5.15;4.65;;;;;;;;;;517987;28;1224;-85
2022/05/10 00:30:35;;;;;;;5.27;4.70;;;;;;;;;;517508;28;1637;-84
2022/05/10 00:30:52;;;;;;;4.97;4.43;;;;;;;;;;516807;28;990;-85
2022/05/10 00:31:09;;;;;;;5.65;4.40;;;;;;;;;;517305;28;1579;-85
2022/05/10 00:31:25;;;;;;;5.40;4.45;;;;;;;;;;516038;28;1246;-85
2022/05/10 00:31:41;;;;;;;4.60;4.20;;;;;;;;;;515677;28;1690;-85
2022/05/10 00:31:56;;;;;;;4.63;4.22;;;;;;;;;;515546;28;1562;-85
2022/05/10 00:32:11;;;;;;;4.90;4.40;;;;;;;;;;515498;28;1457;-85
2022/05/10 00:32:31;;;;;;;5.43;4.50;;;;;;;;;;515389;28;1590;-85
2022/05/10 00:32:47;;;;;;;5.78;4.53;;;;;;;;;;514491;28;1560;-85
2022/05/10 00:33:06;;;;;;;5.57;4.40;;;;;;;;;;513438;28;1190;-84
2022/05/10 00:33:30;;;;;;;5.97;4.60;;;;;;;;;;514950;28;1730;-85
2022/05/10 00:33:46;;;;;;;5.13;4.40;;;;;;;;;;515393;28;1445;-85
2022/05/10 00:34:02;;;;;;;4.97;4.47;;;;;;;;;;513460;28;1453;-85
2022/05/10 00:34:18;;;;;;;5.13;4.35;;;;;;;;;;515041;28;1436;-85
2022/05/10 00:34:36;;;;;;;5.13;4.43;;;;;;;;;;515634;28;1299;-85
2022/05/10 00:34:52;;;;;;;5.40;4.70;;;;;;;;;;515112;28;1662;-85
2022/05/10 00:35:15;;;;;;;5.93;4.57;;;;;;;;;;512556;28;1428;-85
2022/05/10 00:35:33;;;;;;;6.30;5.03;;;;;;;;;;515205;28;1329;-84
2022/05/10 00:35:48;;;;;;;5.50;4.78;;;;;;;;;;514779;28;1706;-85
2022/05/10 00:36:05;;;;;;;6.32;4.47;;;;;;;;;;515667;28;1526;-85
2022/05/10 00:36:23;;;;;;;6.78;4.45;;;;;;;;;;516094;28;931;-84
2022/05/10 00:36:39;;;;;;;5.35;4.47;;;;;;;;;;514544;28;1322;-85
2022/05/10 00:36:55;;;;;;;5.43;4.60;;;;;;;;;;513687;28;1365;-85
2022/05/10 00:37:12;;;;;;;6.10;4.68;;;;;;;;;;513765;28;1201;-85
2022/05/10 00:37:29;;;;;;;6.50;4.72;;;;;;;;;;511642;28;1651;-84
2022/05/10 00:37:46;;;;;;;6.13;4.70;;;;;;;;;;512339;28;1014;-84
2022/05/10 00:38:03;;;;;;;5.18;4.60;;;;;;;;;;513863;28;1437;-84
2022/05/10 00:38:22;;;;;;;5.85;4.70;;;;;;;;;;512908;28;924;-84
2022/05/10 00:38:40;;;;;;;5.47;4.70;;;;;;;;;;513508;28;1520;-85
2022/05/10 00:38:55;;;;;;;5.75;4.97;;;;;;;;;;514110;28;977;-85
2022/05/10 00:39:12;;;;;;;5.77;4.97;;;;;;;;;;515999;28;1054;-84
2022/05/10 00:39:28;;;;;;;5.50;4.63;;;;;;;;;;516468;28;1590;-85
2022/05/10 00:39:43;;;;;;;5.90;4.50;;;;;;;;;;518257;28;1015;-84
2022/05/10 00:39:58;;;;;;;5.68;4.47;;;;;;;;;;517964;28;1086;-85
2022/05/10 00:40:19;;;;;;;6.20;4.60;;;;;;;;;;518001;28;1162;-85
2022/05/10 00:40:36;;;;;;;6.15;4.70;;;;;;;;;;518624;28;1552;-85
2022/05/10 00:40:51;;;;;;;5.35;4.60;;;;;;;;;;515930;28;1322;-85
2022/05/10 00:41:20;;;;;;;5.10;4.57;;;;;;;;;;516904;28;1611;-85
2022/05/10 00:41:48;;;;;;;5.68;4.70;;;;;;;;;;516476;28;1515;-85
2022/05/10 00:42:12;;;;;;;6.20;4.85;;;;;;;;;;515588;28;1223;-84
2022/05/10 00:42:33;;;;;;;5.68;4.80;;;;;;;;;;514561;28;1588;-85
2022/05/10 00:43:09;;;;;;;5.78;4.45;;;;;;;;;;514495;28;1401;-85
2022/05/10 00:43:27;;;;;;;5.45;4.70;;;;;;;;;;517704;28;1335;-85
2022/05/10 00:43:49;;;;;;;5.53;4.88;;;;;;;;;;515135;28;1437;-85
2022/05/10 00:44:12;;;;;;;5.65;4.65;;;;;;;;;;515180;28;1507;-84
2022/05/10 00:44:34;;;;;;;6.65;5.00;;;;;;;;;;513585;28;1463;-85
2022/05/10 00:45:02;;;;;;;5.00;4.50;;;;;;;;;;512792;28;1478;-84
2022/05/10 00:45:24;;;;;;;5.55;4.80;;;;;;;;;;515417;28;1500;-85
2022/05/10 00:46:10;;;;;;;5.30;4.80;;;;;;;;;;514025;28;1552;-85
2022/05/10 00:46:35;;;;;;;5.03;4.53;;;;;;;;;;515805;28;1327;-85
2022/05/10 00:47:09;;;;;;;6.40;4.75;;;;;;;;;;513823;28;1316;-84
2022/05/10 00:47:45;;;;;;;5.43;4.78;;;;;;;;;;513835;28;861;-84
2022/05/10 00:48:18;;;;;;;5.47;4.80;;;;;;;;;;513282;28;1595;-84
2022/05/10 00:48:42;;;;;;;5.57;4.85;;;;;;;;;;515958;28;995;-84
2022/05/10 00:49:07;;;;;;;5.00;4.50;;;;;;;;;;518016;28;1063;-84
2022/05/10 00:49:41;;;;;;;5.70;4.78;;;;;;;;;;513641;28;1027;-85
2022/05/10 00:50:01;;;;;;;6.93;4.85;;;;;;;;;;516179;28;988;-85
2022/05/10 00:50:31;;;;;;;5.75;4.65;;;;;;;;;;517364;28;1426;-85
2022/05/10 00:50:52;;;;;;;5.50;5.00;;;;;;;;;;518170;28;1082;-84
2022/05/10 00:51:12;;;;;;;5.53;4.90;;;;;;;;;;517431;28;1518;-84
2022/05/10 00:51:36;;;;;;;5.28;4.78;;;;;;;;;;518615;28;1617;-85
2022/05/10 00:52:01;;;;;;;5.85;4.90;;;;;;;;;;518788;28;1471;-84
2022/05/10 00:52:56;;;;;;;6.82;5.00;;;;;;;;;;515412;28;1400;-85
2022/05/10 00:53:18;;;;;;;6.20;5.00;;;;;;;;;;512703;28;1616;-84
2022/05/10 00:53:45;;;;;;;6.05;5.10;;;;;;;;;;513788;28;1565;-85
2022/05/10 00:54:35;;;;;;;6.85;5.00;;;;;;;;;;517553;28;1485;-85
2022/05/10 00:54:58;;;;;;;5.38;4.78;;;;;;;;;;507853;29;996;-84
2022/05/10 00:55:19;;;;;;;5.20;4.70;;;;;;;;;;509166;29;1680;-85
2022/05/10 00:55:40;;;;;;;5.40;4.80;;;;;;;;;;509782;29;794;-85
2022/05/10 00:56:06;;;;;;;5.53;4.90;;;;;;;;;;511468;28;1688;-84
2022/05/10 00:56:29;;;;;;;6.10;5.10;;;;;;;;;;519350;28;857;-85
2022/05/10 00:56:51;;;;;;;5.80;5.03;;;;;;;;;;518753;28;1197;-84
2022/05/10 00:57:16;;;;;;;5.50;4.80;;;;;;;;;;517370;28;1601;-85
2022/05/10 00:57:39;;;;;;;5.43;4.93;;;;;;;;;;516043;28;952;-84
2022/05/10 00:58:18;;;;;;;5.70;5.18;;;;;;;;;;516141;28;944;-84
2022/05/10 00:58:36;;;;;;;6.40;5.13;;;;;;;;;;509642;29;1351;-85
2022/05/10 00:58:59;;;;;;;6.30;5.15;;;;;;;;;;515299;28;1146;-85
2022/05/10 00:59:20;;;;;;;6.03;4.90;;;;;;;;;;518548;28;1530;-85
2022/05/10 00:59:45;;;;;;;5.82;4.90;;;;;;;;;;519340;28;908;-85
2022/05/10 01:00:10;;;;;;;5.70;4.90;;;;;;;;;;517839;28;1554;-85
2022/05/10 01:00:28;;;;;;;5.20;4.70;;;;;;;;;;518871;28;1297;-84
2022/05/10 01:00:45;;;;;;;5.35;4.85;;;;;;;;;;518894;28;1509;-85
2022/05/10 01:01:02;;;;;;;5.75;5.15;;;;;;;;;;517765;28;1637;-84
2022/05/10 01:01:23;;;;;;;5.50;4.97;;;;;;;;;;517929;28;1247;-84
2022/05/10 01:01:40;;;;;;;6.03;5.07;;;;;;;;;;518032;28;1454;-86
2022/05/10 01:02:05;;;;;;;6.47;5.43;;;;;;;;;;515286;28;2067;-84
2022/05/10 01:02:33;;;;;;;5.63;5.10;;;;;;;;;;514573;28;1579;-84
2022/05/10 01:03:03;;;;;;;5.40;4.90;;;;;;;;;;515065;28;1609;-85
2022/05/10 01:03:28;;;;;;;5.78;5.18;;;;;;;;;;518872;28;895;-84
2022/05/10 01:03:51;;;;;;;5.68;4.88;;;;;;;;;;516675;28;1729;-85
2022/05/10 01:04:27;;;;;;;6.00;4.80;;;;;;;;;;518124;28;1079;-85
2022/05/10 01:04:51;;;;;;;5.55;5.00;;;;;;;;;;514583;28;1331;-84
2022/05/10 01:05:23;;;;;;;6.15;5.10;;;;;;;;;;514663;28;1914;-84
2022/05/10 01:06:01;;;;;;;5.55;5.03;;;;;;;;;;514317;28;1384;-85
2022/05/10 01:06:36;;;;;;;6.75;5.00;;;;;;;;;;515191;28;1404;-84
2022/05/10 01:07:01;;;;;;;5.80;5.30;;;;;;;;;;516615;28;884;-84
2022/05/10 01:07:29;;;;;;;5.72;4.90;;;;;;;;;;516066;28;1327;-85
2022/05/10 01:07:55;;;;;;;5.43;4.80;;;;;;;;;;516739;28;1695;-85
2022/05/10 01:08:19;;;;;;;5.68;5.10;;;;;;;;;;513700;28;1666;-85
2022/05/10 01:08:43;;;;;;;5.53;4.93;;;;;;;;;;515530;28;1769;-85
2022/05/10 01:09:04;;;;;;;5.45;4.95;;;;;;;;;;513920;28;1645;-85
2022/05/10 01:09:40;;;;;;;5.40;4.90;;;;;;;;;;516739;28;1618;-85
2022/05/10 01:10:12;;;;;;;5.65;5.03;;;;;;;;;;513613;28;1578;-85
2022/05/10 01:10:41;;;;;;;5.40;4.78;;;;;;;;;;517885;28;872;-84
2022/05/10 01:11:10;;;;;;;6.45;5.18;;;;;;;;;;514497;28;1485;-85
2022/05/10 01:11:31;;;;;;;5.43;4.93;;;;;;;;;;515097;28;1475;-85
2022/05/10 01:11:58;;;;;;;5.20;4.70;;;;;;;;;;514494;28;889;-85
2022/05/10 01:12:35;;;;;;;5.70;4.90;;;;;;;;;;519317;28;1268;-85
2022/05/10 01:12:59;;;;;;;5.32;4.80;;;;;;;;;;516674;28;1280;-85
2022/05/10 01:13:32;;;;;;;5.20;4.70;;;;;;;;;;519282;28;1593;-85
2022/05/10 01:14:04;;;;;;;6.13;5.00;;;;;;;;;;519024;28;1117;-84
2022/05/10 01:14:26;;;;;;;5.50;5.00;;;;;;;;;;518111;28;880;-84
2022/05/10 01:14:50;;;;;;;5.55;5.05;;;;;;;;;;517934;28;1007;-85
2022/05/10 01:15:19;;;;;;;5.10;4.60;;;;;;;;;;517450;28;1566;-85
2022/05/10 01:15:36;;;;;;;5.50;5.00;;;;;;;;;;517327;28;1141;-85
2022/05/10 01:16:13;;;;;;;5.90;5.30;;;;;;;;;;518067;28;861;-84
2022/05/10 01:16:28;;;;;;;5.22;4.70;;;;;;;;;;518750;28;1925;-85
2022/05/10 01:16:44;;;;;;;5.55;4.90;;;;;;;;;;517871;28;1173;-84
2022/05/10 01:17:00;;;;;;;5.80;5.00;;;;;;;;;;517968;28;794;-84
2022/05/10 01:17:16;;;;;;;5.57;4.95;;;;;;;;;;513847;28;1207;-85
2022/05/10 01:17:32;;;;;;;5.07;4.57;;;;;;;;;;511974;28;1363;-84
2022/05/10 01:17:55;;;;;;;5.20;4.70;;;;;;;;;;513387;28;1396;-85
2022/05/10 01:18:11;;;;;;;5.70;5.20;;;;;;;;;;513607;28;1755;-84
2022/05/10 01:18:26;;;;;;;6.53;5.37;;;;;;;;;;514012;28;1268;-85
2022/05/10 01:18:43;;;;;;;6.43;5.13;;;;;;;;;;513497;28;1602;-85
2022/05/10 01:18:58;;;;;;;5.40;4.90;;;;;;;;;;513994;28;1046;-85
2022/05/10 01:19:14;;;;;;;6.27;5.20;;;;;;;;;;515442;28;1570;-86
2022/05/10 01:19:29;;;;;;;6.00;5.13;;;;;;;;;;517131;28;1578;-84
2022/05/10 01:19:45;;;;;;;5.40;4.90;;;;;;;;;;516606;28;1635;-85
2022/05/10 01:20:02;;;;;;;5.70;5.10;;;;;;;;;;515242;28;1615;-85
2022/05/10 01:20:22;;;;;;;5.90;5.30;;;;;;;;;;516123;28;1481;-85
2022/05/10 01:20:43;;;;;;;5.63;5.03;;;;;;;;;;517384;28;1562;-84
2022/05/10 01:21:11;;;;;;;5.30;4.80;;;;;;;;;;517101;28;1460;-85
2022/05/10 01:21:40;;;;;;;6.05;5.15;;;;;;;;;;516985;28;1272;-85
2022/05/10 01:22:29;;;;;;;5.43;4.93;;;;;;;;;;517133;28;1011;-85
2022/05/10 01:22:44;;;;;;;5.65;5.15;;;;;;;;;;519604;28;1389;-84
2022/05/10 01:23:35;;;;;;;5.93;5.23;;;;;;;;;;518933;28;1573;-85
2022/05/10 01:24:15;;;;;;;5.72;4.72;;;;;;;;;;519360;28;1289;-85
2022/05/10 01:24:51;;;;;;;5.72;5.22;;;;;;;;;;518861;28;920;-86
2022/05/10 01:25:20;;;;;;;5.47;4.97;;;;;;;;;;519448;28;1878;-84
2022/05/10 01:26:03;;;;;;;5.55;4.82;;;;;;;;;;518283;28;1667;-85
2022/05/10 01:26:24;;;;;;;5.78;5.18;;;;;;;;;;517775;28;1523;-85
2022/05/10 01:26:42;;;;;;;5.88;5.28;;;;;;;;;;518927;28;1589;-85
2022/05/10 01:26:58;;;;;;;5.78;5.18;;;;;;;;;;517882;28;1589;-85
2022/05/10 01:27:34;;;;;;;6.25;5.20;;;;;;;;;;517288;28;1232;-85
2022/05/10 01:28:08;;;;;;;5.70;5.10;;;;;;;;;;515904;28;857;-84
2022/05/10 01:28:32;;;;;;;5.68;5.00;;;;;;;;;;517091;28;1475;-84
2022/05/10 01:28:52;;;;;;;5.85;5.10;;;;;;;;;;514171;28;1249;-84
2022/05/10 01:29:12;;;;;;;6.90;5.13;;;;;;;;;;512744;28;1528;-85
2022/05/10 01:29:50;;;;;;;5.72;5.10;;;;;;;;;;511681;28;1645;-85
2022/05/10 01:30:10;;;;;;;6.10;5.20;;;;;;;;;;512550;28;1380;-85
2022/05/10 01:30:30;;;;;;;5.63;5.00;;;;;;;;;;513289;28;1558;-85
2022/05/10 01:30:46;;;;;;;5.40;4.90;;;;;;;;;;513455;28;881;-85
2022/05/10 01:31:08;;;;;;;5.63;5.13;;;;;;;;;;515982;28;916;-84
2022/05/10 01:31:32;;;;;;;6.13;5.30;;;;;;;;;;514727;28;1102;-84
2022/05/10 01:33:29;;;;;;;5.60;5.10;;;;;;;;;;513897;28;874;-84
2022/05/10 01:33:30;;;;;;;6.00;4.80;;;;;;;;;;517096;28;1499;-85
2022/05/10 01:33:53;;;;;;;5.47;4.97;;;;;;;;;;516127;28;908;-84
2022/05/10 01:34:15;;;;;;;5.53;4.93;;;;;;;;;;513995;28;1256;-84
2022/05/10 01:34:31;;;;;;;5.40;4.90;;;;;;;;;;511973;28;1541;-84
2022/05/10 01:34:50;;;;;;;5.70;5.10;;;;;;;;;;513170;28;963;-84
2022/05/10 01:35:14;;;;;;;5.70;5.20;;;;;;;;;;512773;28;1639;-85
2022/05/10 01:35:32;;;;;;;5.70;5.20;;;;;;;;;;511567;29;1390;-85
2022/05/10 01:35:56;;;;;;;5.50;5.00;;;;;;;;;;511157;29;1012;-84
2022/05/10 01:36:24;;;;;;;5.80;5.20;;;;;;;;;;513583;28;1105;-85
2022/05/10 01:36:43;;;;;;;7.45;5.20;;;;;;;;;;514951;28;1724;-85
2022/05/10 01:37:01;;;;;;;6.22;5.00;;;;;;;;;;513810;28;1363;-85
2022/05/10 01:37:21;;;;;;;5.57;5.00;;;;;;;;;;512069;28;1249;-85
2022/05/10 01:37:39;;;;;;;5.75;5.18;;;;;;;;;;512907;28;1643;-84
2022/05/10 01:38:01;;;;;;;6.18;5.18;;;;;;;;;;512315;28;1020;-85
2022/05/10 01:38:49;;;;;;;6.80;5.13;;;;;;;;;;513915;28;1062;-85
2022/05/10 01:39:13;;;;;;;5.85;5.18;;;;;;;;;;513629;28;1603;-85
2022/05/10 01:39:35;;;;;;;6.68;5.75;;;;;;;;;;515393;28;1590;-86
2022/05/10 01:40:18;;;;;;;6.65;5.45;;;;;;;;;;517537;28;916;-85
2022/05/10 01:40:41;;;;;;;5.90;5.10;;;;;;;;;;514093;28;909;-85
2022/05/10 01:41:31;;;;;;;5.53;5.03;;;;;;;;;;514937;28;1499;-85
2022/05/10 01:42:05;;;;;;;5.80;5.30;;;;;;;;;;514745;28;1792;-85
2022/05/10 01:42:33;;;;;;;5.63;5.10;;;;;;;;;;516159;28;928;-84
2022/05/10 01:42:58;;;;;;;5.95;5.13;;;;;;;;;;516850;28;1518;-85
2022/05/10 01:43:20;;;;;;;6.00;5.40;;;;;;;;;;516587;28;884;-84
2022/05/10 01:43:44;;;;;;;5.80;5.20;;;;;;;;;;515987;28;1437;-84
2022/05/10 01:44:06;;;;;;;6.13;5.45;;;;;;;;;;515686;28;1567;-85
2022/05/10 01:44:24;;;;;;;6.45;5.32;;;;;;;;;;516006;28;963;-85
2022/05/10 01:44:51;;;;;;;6.40;5.45;;;;;;;;;;513551;28;1341;-85
2022/05/10 01:45:15;;;;;;;7.03;5.20;;;;;;;;;;512605;28;1918;-85
2022/05/10 01:45:43;;;;;;;5.82;5.22;;;;;;;;;;513421;28;1738;-84
2022/05/10 01:46:07;;;;;;;6.95;5.30;;;;;;;;;;511073;28;1786;-84
2022/05/10 01:46:28;;;;;;;6.15;5.18;;;;;;;;;;511686;29;909;-85
2022/05/10 01:46:46;;;;;;;6.05;5.45;;;;;;;;;;513563;28;1320;-84
2022/05/10 01:47:31;;;;;;;6.60;5.45;;;;;;;;;;515329;28;1463;-85
2022/05/10 01:48:09;;;;;;;6.28;5.13;;;;;;;;;;515230;28;1503;-84
2022/05/10 01:48:24;;;;;;;6.40;5.70;;;;;;;;;;517671;28;868;-85
2022/05/10 01:48:43;;;;;;;5.87;5.27;;;;;;;;;;516006;28;1459;-85
2022/05/10 01:49:08;;;;;;;5.65;5.15;;;;;;;;;;517186;28;2302;-85
2022/05/10 01:49:36;;;;;;;5.88;5.38;;;;;;;;;;517719;28;1881;-85
2022/05/10 01:50:24;;;;;;;6.10;5.22;;;;;;;;;;517016;28;1439;-85
2022/05/10 01:50:52;;;;;;;5.95;5.40;;;;;;;;;;517082;28;1244;-84
2022/05/10 01:51:26;;;;;;;6.00;5.50;;;;;;;;;;517259;28;1423;-84
2022/05/10 01:52:19;;;;;;;6.10;5.50;;;;;;;;;;515022;28;1754;-85
2022/05/10 01:52:46;;;;;;;5.85;5.25;;;;;;;;;;514611;28;1340;-84
2022/05/10 01:53:11;;;;;;;5.75;5.22;;;;;;;;;;515681;28;1595;-84
2022/05/10 01:53:33;;;;;;;5.80;5.30;;;;;;;;;;515770;28;896;-85
2022/05/10 01:53:49;;;;;;;6.13;5.53;;;;;;;;;;517621;28;1118;-85
2022/05/10 01:54:37;;;;;;;6.17;5.57;;;;;;;;;;517302;28;1600;-85
2022/05/10 01:55:04;;;;;;;6.13;5.50;;;;;;;;;;517054;28;1704;-85
2022/05/10 01:55:41;;;;;;;6.43;5.70;;;;;;;;;;516481;28;948;-85
2022/05/10 01:56:02;;;;;;;5.95;5.35;;;;;;;;;;518214;28;1239;-85
2022/05/10 01:56:20;;;;;;;6.40;5.55;;;;;;;;;;517814;28;1587;-85
2022/05/10 01:56:35;;;;;;;6.43;5.70;;;;;;;;;;515374;28;1428;-85
2022/05/10 01:56:51;;;;;;;6.23;5.63;;;;;;;;;;515465;28;1435;-85
2022/05/10 01:57:12;;;;;;;5.90;5.40;;;;;;;;;;514432;28;1269;-84
2022/05/10 01:57:30;;;;;;;5.82;5.30;;;;;;;;;;515512;28;1490;-84
2022/05/10 01:57:45;;;;;;;6.70;5.47;;;;;;;;;;511761;29;1233;-86
2022/05/10 01:58:08;;;;;;;6.32;5.60;;;;;;;;;;512709;28;1523;-84
2022/05/10 01:58:27;;;;;;;5.80;5.30;;;;;;;;;;511902;28;1364;-85
2022/05/10 01:58:45;;;;;;;5.53;5.00;;;;;;;;;;513021;28;864;-85
2022/05/10 01:59:00;;;;;;;5.50;5.00;;;;;;;;;;509192;29;1561;-85
2022/05/10 01:59:16;;;;;;;6.00;5.30;;;;;;;;;;509772;29;1266;-85
2022/05/10 01:59:31;;;;;;;6.85;5.85;;;;;;;;;;509498;29;1569;-84
2022/05/10 01:59:52;;;;;;;6.30;5.70;;;;;;;;;;512352;28;1360;-85
2022/05/10 02:00:17;;;;;;;6.20;5.10;;;;;;;;;;511880;28;913;-85
2022/05/10 02:00:34;;;;;;;5.80;5.30;;;;;;;;;;513396;28;2085;-85
2022/05/10 02:00:55;;;;;;;5.78;5.28;;;;;;;;;;513149;28;1574;-85
2022/05/10 02:01:19;;;;;;;5.72;5.22;;;;;;;;;;512000;28;1587;-85
2022/05/10 02:01:41;;;;;;;6.03;5.43;;;;;;;;;;512324;28;1122;-84
2022/05/10 02:01:58;;;;;;;5.97;5.43;;;;;;;;;;513209;28;1654;-85
2022/05/10 02:02:15;;;;;;;5.93;5.32;;;;;;;;;;514736;28;1249;-84
2022/05/10 02:02:33;;;;;;;6.05;5.35;;;;;;;;;;514713;28;901;-85
2022/05/10 02:02:55;;;;;;;5.90;5.30;;;;;;;;;;515704;28;1287;-85
2022/05/10 02:03:25;;;;;;;6.15;5.45;;;;;;;;;;514947;28;1331;-85
2022/05/10 02:03:52;;;;;;;5.78;5.25;;;;;;;;;;515025;28;1425;-86
2022/05/10 02:04:21;;;;;;;6.07;5.47;;;;;;;;;;515041;28;2570;-85
2022/05/10 02:04:40;;;;;;;5.90;5.40;;;;;;;;;;512542;28;1447;-85
2022/05/10 02:05:01;;;;;;;6.10;5.50;;;;;;;;;;510467;28;1512;-85
2022/05/10 02:05:26;;;;;;;6.30;5.70;;;;;;;;;;513757;28;2049;-84
2022/05/10 02:05:53;;;;;;;6.00;5.40;;;;;;;;;;511610;28;1505;-85
2022/05/10 02:06:26;;;;;;;5.72;5.20;;;;;;;;;;510934;29;1395;-85
2022/05/10 02:06:53;;;;;;;6.18;5.20;;;;;;;;;;510965;28;1532;-85
2022/05/10 02:07:18;;;;;;;6.68;5.07;;;;;;;;;;513837;28;1890;-85
2022/05/10 02:07:35;;;;;;;6.20;5.28;;;;;;;;;;515409;28;1470;-85
2022/05/10 02:07:55;;;;;;;6.38;5.25;;;;;;;;;;517345;28;1411;-85
2022/05/10 02:08:26;;;;;;;5.78;5.28;;;;;;;;;;517777;28;1334;-85
2022/05/10 02:08:50;;;;;;;6.15;5.60;;;;;;;;;;515527;28;1460;-85
2022/05/10 02:09:47;;;;;;;7.10;5.68;;;;;;;;;;516685;28;1251;-86
2022/05/10 02:10:12;;;;;;;6.30;5.20;;;;;;;;;;507270;29;1530;-84
2022/05/10 02:10:34;;;;;;;5.93;5.30;;;;;;;;;;505402;29;1753;-84
2022/05/10 02:10:53;;;;;;;6.15;5.38;;;;;;;;;;505472;29;1366;-84
2022/05/10 02:11:11;;;;;;;7.47;5.55;;;;;;;;;;505712;29;1518;-85
2022/05/10 02:11:28;;;;;;;6.40;5.60;;;;;;;;;;506462;29;1325;-85
2022/05/10 02:12:00;;;;;;;5.78;5.28;;;;;;;;;;506248;29;1440;-84
2022/05/10 02:12:36;;;;;;;5.65;5.13;;;;;;;;;;503660;29;1364;-84
2022/05/10 02:13:01;;;;;;;6.15;5.20;;;;;;;;;;514821;28;1339;-84
2022/05/10 02:13:33;;;;;;;6.00;5.40;;;;;;;;;;514830;28;1377;-84
2022/05/10 02:14:00;;;;;;;6.50;5.40;;;;;;;;;;516303;28;1380;-85
2022/05/10 02:14:19;;;;;;;5.88;5.32;;;;;;;;;;516913;28;1281;-85
2022/05/10 02:14:38;;;;;;;5.70;5.20;;;;;;;;;;514042;28;1422;-85
2022/05/10 02:15:11;;;;;;;5.50;5.00;;;;;;;;;;514468;28;1379;-85
2022/05/10 02:15:47;;;;;;;6.00;5.40;;;;;;;;;;513893;28;1496;-84
2022/05/10 02:16:17;;;;;;;7.05;5.60;;;;;;;;;;514049;28;1807;-86
2022/05/10 02:16:40;;;;;;;5.82;5.10;;;;;;;;;;515696;28;1762;-85
2022/05/10 02:16:59;;;;;;;6.20;5.60;;;;;;;;;;516355;28;1483;-85
2022/05/10 02:17:40;;;;;;;6.28;5.70;;;;;;;;;;517827;28;1589;-84
2022/05/10 02:18:04;;;;;;;5.85;5.35;;;;;;;;;;507932;29;1416;-85